IL72 weather

CLOSED Entwistle Airport
Lostant, Illinois, United States

Public forecast

Using degrees Fahrenheit for public forecast. Weather courtesy of forecast.io.

METAR (pilot weather report)

Closest report is Illinois Valley Regional Airport-Walter A Duncan Field, 15.0 nm (27.8 km) NNW. Retrieved 2019/08/22 04:35 UTC (0 seconds ago):

KVYS 220435Z AUTO 34006KT 10SM BKN120 21/20 A3001 RMK AO2 T02130196

TAF (pilot weather forecast)

Forecast is more than 12 hours old.

Closest forecast is Central Illinois Regional Airport at Bloomington-Normal, 38.8 nm (71.8 km) S. Retrieved 2019/08/21 00:30 UTC (1 day ago):

TAF KBMI 212328Z 2200/2224 30006KT P6SM VCSH SCT035 BKN080 FM220700 VRB04KT P6SM SCT030 BKN080 FM221000 VRB03KT 4SM BR SCT025 BKN250 FM221400 20008KT P6SM SCT035 BKN250